sensor_id;sensor_type;location;lat;lon;timestamp;pressure;altitude;pressure_sealevel;temperature;humidity
12626;BME280;6378;42.684;23.372;2023-01-19T00:02:17;93944.47;;;14.45;53.17
12626;BME280;6378;42.684;23.372;2023-01-19T00:04:42;93942.91;;;14.44;53.32
12626;BME280;6378;42.684;23.372;2023-01-19T00:07:08;93922.06;;;14.33;53.40
12626;BME280;6378;42.684;23.372;2023-01-19T00:09:33;93929.78;;;14.42;53.62
12626;BME280;6378;42.684;23.372;2023-01-19T00:12:03;93932.47;;;14.42;52.55
12626;BME280;6378;42.684;23.372;2023-01-19T00:14:28;93956.06;;;14.42;53.24
12626;BME280;6378;42.684;23.372;2023-01-19T00:16:54;93980.03;;;14.50;51.74
12626;BME280;6378;42.684;23.372;2023-01-19T00:19:19;93925.44;;;14.59;51.90
12626;BME280;6378;42.684;23.372;2023-01-19T00:21:45;93961.75;;;14.65;51.74
12626;BME280;6378;42.684;23.372;2023-01-19T00:24:10;93976.09;;;14.58;52.86
12626;BME280;6378;42.684;23.372;2023-01-19T00:26:38;93969.16;;;14.54;53.14
12626;BME280;6378;42.684;23.372;2023-01-19T00:29:05;93973.81;;;14.53;52.51
12626;BME280;6378;42.684;23.372;2023-01-19T00:31:32;93979.25;;;14.50;53.00
12626;BME280;6378;42.684;23.372;2023-01-19T00:33:58;93936.34;;;14.45;53.01
12626;BME280;6378;42.684;23.372;2023-01-19T00:36:24;93966.00;;;14.62;52.69
12626;BME280;6378;42.684;23.372;2023-01-19T00:38:49;93971.41;;;14.69;52.30
12626;BME280;6378;42.684;23.372;2023-01-19T00:41:15;93980.66;;;14.76;51.96
12626;BME280;6378;42.684;23.372;2023-01-19T00:43:41;93958.31;;;14.61;52.03
12626;BME280;6378;42.684;23.372;2023-01-19T00:46:06;93952.38;;;14.77;51.90
12626;BME280;6378;42.684;23.372;2023-01-19T00:48:31;93985.25;;;14.79;52.36
12626;BME280;6378;42.684;23.372;2023-01-19T00:50:57;93985.22;;;14.82;51.87
12626;BME280;6378;42.684;23.372;2023-01-19T00:53:24;93958.91;;;14.83;51.95
12626;BME280;6378;42.684;23.372;2023-01-19T00:55:49;93980.34;;;15.18;51.33
12626;BME280;6378;42.684;23.372;2023-01-19T00:58:15;93955.94;;;15.18;51.04
12626;BME280;6378;42.684;23.372;2023-01-19T01:00:40;93948.13;;;15.27;50.69
12626;BME280;6378;42.684;23.372;2023-01-19T01:03:06;93913.00;;;15.13;50.61
12626;BME280;6378;42.684;23.372;2023-01-19T01:05:31;93960.84;;;15.34;49.86
12626;BME280;6378;42.684;23.372;2023-01-19T01:07:57;93946.44;;;15.40;50.16
12626;BME280;6378;42.684;23.372;2023-01-19T01:10:25;93936.00;;;15.39;49.80
12626;BME280;6378;42.684;23.372;2023-01-19T01:12:51;93957.63;;;15.46;49.05
12626;BME280;6378;42.684;23.372;2023-01-19T01:15:16;93962.59;;;15.58;48.78
12626;BME280;6378;42.684;23.372;2023-01-19T01:17:42;93961.38;;;15.63;48.63
12626;BME280;6378;42.684;23.372;2023-01-19T01:20:19;93964.47;;;15.61;49.05
12626;BME280;6378;42.684;23.372;2023-01-19T01:22:47;93947.38;;;15.64;48.37
12626;BME280;6378;42.684;23.372;2023-01-19T01:25:14;93926.13;;;15.59;48.81
12626;BME280;6378;42.684;23.372;2023-01-19T01:27:41;93950.56;;;15.55;48.42
12626;BME280;6378;42.684;23.372;2023-01-19T01:30:08;93956.81;;;15.52;48.32
12626;BME280;6378;42.684;23.372;2023-01-19T01:32:33;93949.75;;;15.62;48.07
12626;BME280;6378;42.684;23.372;2023-01-19T01:34:59;93950.16;;;15.60;48.36
12626;BME280;6378;42.684;23.372;2023-01-19T01:37:24;93972.69;;;15.54;48.37
12626;BME280;6378;42.684;23.372;2023-01-19T01:39:50;93979.63;;;15.55;47.84
12626;BME280;6378;42.684;23.372;2023-01-19T01:42:17;93959.78;;;15.65;47.91
12626;BME280;6378;42.684;23.372;2023-01-19T01:44:54;93962.50;;;15.65;47.46
12626;BME280;6378;42.684;23.372;2023-01-19T01:47:30;93975.31;;;15.61;47.97
12626;BME280;6378;42.684;23.372;2023-01-19T01:52:33;93957.59;;;15.53;47.37
12626;BME280;6378;42.684;23.372;2023-01-19T01:55:01;93965.59;;;15.67;46.86
12626;BME280;6378;42.684;23.372;2023-01-19T01:57:28;93936.53;;;15.64;47.19
12626;BME280;6378;42.684;23.372;2023-01-19T01:59:55;93951.28;;;15.63;47.12
12626;BME280;6378;42.684;23.372;2023-01-19T02:02:26;93952.75;;;15.71;47.11
12626;BME280;6378;42.684;23.372;2023-01-19T02:10:32;93953.56;;;15.68;46.05
12626;BME280;6378;42.684;23.372;2023-01-19T02:13:17;93954.72;;;15.67;46.53
12626;BME280;6378;42.684;23.372;2023-01-19T02:15:50;93943.47;;;15.69;45.90
12626;BME280;6378;42.684;23.372;2023-01-19T02:18:17;93941.13;;;15.71;45.82
12626;BME280;6378;42.684;23.372;2023-01-19T02:20:49;93928.28;;;15.75;45.73
12626;BME280;6378;42.684;23.372;2023-01-19T02:26:24;93905.81;;;15.74;57.30
12626;BME280;6378;42.684;23.372;2023-01-19T02:28:58;93929.38;;;15.81;46.23
12626;BME280;6378;42.684;23.372;2023-01-19T02:31:24;93935.41;;;15.62;46.53
12626;BME280;6378;42.684;23.372;2023-01-19T02:33:51;93905.63;;;15.58;46.06
12626;BME280;6378;42.684;23.372;2023-01-19T02:36:20;93940.03;;;15.65;46.00
12626;BME280;6378;42.684;23.372;2023-01-19T02:38:47;93923.72;;;15.68;45.59
12626;BME280;6378;42.684;23.372;2023-01-19T02:41:18;93932.22;;;15.70;45.63
12626;BME280;6378;42.684;23.372;2023-01-19T02:43:47;93936.53;;;15.64;45.90
12626;BME280;6378;42.684;23.372;2023-01-19T02:46:14;93935.38;;;15.65;45.59
12626;BME280;6378;42.684;23.372;2023-01-19T02:48:40;93938.13;;;15.62;45.60
12626;BME280;6378;42.684;23.372;2023-01-19T02:51:23;93932.50;;;15.79;44.98
12626;BME280;6378;42.684;23.372;2023-01-19T03:07:57;93938.03;;;15.69;44.77
12626;BME280;6378;42.684;23.372;2023-01-19T03:10:34;93931.94;;;15.61;44.77
12626;BME280;6378;42.684;23.372;2023-01-19T03:13:12;93927.22;;;15.65;44.88
12626;BME280;6378;42.684;23.372;2023-01-19T03:18:08;93923.53;;;15.48;45.21
12626;BME280;6378;42.684;23.372;2023-01-19T03:20:35;93924.72;;;15.44;45.32
12626;BME280;6378;42.684;23.372;2023-01-19T03:23:07;93916.59;;;15.44;45.06
12626;BME280;6378;42.684;23.372;2023-01-19T03:25:36;93878.38;;;15.31;44.88
12626;BME280;6378;42.684;23.372;2023-01-19T03:28:04;93918.44;;;15.50;44.82
12626;BME280;6378;42.684;23.372;2023-01-19T03:30:35;93904.25;;;15.36;45.83
12626;BME280;6378;42.684;23.372;2023-01-19T03:33:30;93900.75;;;15.39;45.62
12626;BME280;6378;42.684;23.372;2023-01-19T03:36:01;93896.50;;;15.38;45.46
12626;BME280;6378;42.684;23.372;2023-01-19T03:38:33;93899.56;;;15.40;45.37
12626;BME280;6378;42.684;23.372;2023-01-19T03:41:02;93900.38;;;15.37;45.61
12626;BME280;6378;42.684;23.372;2023-01-19T03:43:29;93885.66;;;15.38;45.98
12626;BME280;6378;42.684;23.372;2023-01-19T03:45:56;93877.59;;;15.31;45.72
12626;BME280;6378;42.684;23.372;2023-01-19T03:48:22;93856.28;;;15.33;45.74
12626;BME280;6378;42.684;23.372;2023-01-19T03:50:47;93878.03;;;15.26;45.69
12626;BME280;6378;42.684;23.372;2023-01-19T03:53:15;93880.28;;;15.31;44.81
12626;BME280;6378;42.684;23.372;2023-01-19T03:55:44;93878.31;;;15.35;44.65
12626;BME280;6378;42.684;23.372;2023-01-19T03:58:11;93855.13;;;15.34;44.64
12626;BME280;6378;42.684;23.372;2023-01-19T04:00:37;93856.75;;;15.24;44.25
12626;BME280;6378;42.684;23.372;2023-01-19T04:03:03;93862.44;;;15.37;44.14
12626;BME280;6378;42.684;23.372;2023-01-19T04:05:29;93884.06;;;15.40;44.02
12626;BME280;6378;42.684;23.372;2023-01-19T04:07:55;93871.28;;;15.41;43.58
12626;BME280;6378;42.684;23.372;2023-01-19T04:10:21;93880.91;;;15.49;43.45
12626;BME280;6378;42.684;23.372;2023-01-19T04:12:47;93876.22;;;15.53;43.30
12626;BME280;6378;42.684;23.372;2023-01-19T04:15:13;93866.50;;;15.55;42.98
12626;BME280;6378;42.684;23.372;2023-01-19T04:17:39;93859.66;;;15.44;43.07
12626;BME280;6378;42.684;23.372;2023-01-19T04:20:05;93870.06;;;15.45;42.94
12626;BME280;6378;42.684;23.372;2023-01-19T04:22:30;93833.44;;;15.34;43.23
12626;BME280;6378;42.684;23.372;2023-01-19T04:24:56;93853.38;;;15.54;42.91
12626;BME280;6378;42.684;23.372;2023-01-19T04:27:21;93852.25;;;15.48;43.14
12626;BME280;6378;42.684;23.372;2023-01-19T04:29:47;93859.22;;;15.49;42.32
12626;BME280;6378;42.684;23.372;2023-01-19T04:32:13;93852.50;;;15.60;41.95
12626;BME280;6378;42.684;23.372;2023-01-19T04:34:38;93851.72;;;15.60;41.90
12626;BME280;6378;42.684;23.372;2023-01-19T04:37:04;93851.59;;;15.71;41.63
12626;BME280;6378;42.684;23.372;2023-01-19T04:39:29;93841.22;;;15.66;41.81
12626;BME280;6378;42.684;23.372;2023-01-19T04:41:55;93854.38;;;15.67;41.54
12626;BME280;6378;42.684;23.372;2023-01-19T04:44:22;93864.44;;;15.67;41.31
12626;BME280;6378;42.684;23.372;2023-01-19T04:46:48;93869.25;;;15.52;41.56
12626;BME280;6378;42.684;23.372;2023-01-19T04:49:13;93881.44;;;15.71;41.37
12626;BME280;6378;42.684;23.372;2023-01-19T04:51:39;93888.47;;;15.65;41.74
12626;BME280;6378;42.684;23.372;2023-01-19T04:54:04;93877.63;;;15.65;41.79
12626;BME280;6378;42.684;23.372;2023-01-19T04:56:30;93906.69;;;15.64;41.34
12626;BME280;6378;42.684;23.372;2023-01-19T04:58:56;93865.38;;;15.53;41.40
12626;BME280;6378;42.684;23.372;2023-01-19T05:01:21;93896.28;;;15.59;41.75
12626;BME280;6378;42.684;23.372;2023-01-19T05:03:47;93893.13;;;15.64;40.64
12626;BME280;6378;42.684;23.372;2023-01-19T05:06:12;93879.91;;;15.70;40.71
12626;BME280;6378;42.684;23.372;2023-01-19T05:08:38;93891.84;;;15.76;40.71
12626;BME280;6378;42.684;23.372;2023-01-19T05:11:03;93918.66;;;15.70;41.40
12626;BME280;6378;42.684;23.372;2023-01-19T05:13:29;93932.59;;;15.72;40.37
12626;BME280;6378;42.684;23.372;2023-01-19T05:15:54;93922.88;;;15.75;40.17
12626;BME280;6378;42.684;23.372;2023-01-19T05:18:19;93917.72;;;15.84;40.34
12626;BME280;6378;42.684;23.372;2023-01-19T05:20:45;93934.78;;;15.84;40.34
12626;BME280;6378;42.684;23.372;2023-01-19T05:23:11;93943.72;;;15.81;40.10
12626;BME280;6378;42.684;23.372;2023-01-19T05:25:36;93933.22;;;15.83;40.30
12626;BME280;6378;42.684;23.372;2023-01-19T05:28:02;93927.50;;;15.74;40.07
12626;BME280;6378;42.684;23.372;2023-01-19T05:30:27;93934.03;;;15.80;40.12
12626;BME280;6378;42.684;23.372;2023-01-19T05:32:53;93926.63;;;15.84;40.08
12626;BME280;6378;42.684;23.372;2023-01-19T05:35:18;93934.78;;;15.84;39.92
12626;BME280;6378;42.684;23.372;2023-01-19T05:37:44;93930.13;;;15.85;40.09
12626;BME280;6378;42.684;23.372;2023-01-19T05:40:09;93914.94;;;15.91;39.45
12626;BME280;6378;42.684;23.372;2023-01-19T05:42:35;93923.91;;;15.88;39.56
12626;BME280;6378;42.684;23.372;2023-01-19T05:45:00;93919.31;;;15.81;39.68
12626;BME280;6378;42.684;23.372;2023-01-19T05:47:28;93922.25;;;15.94;39.07
12626;BME280;6378;42.684;23.372;2023-01-19T05:49:54;93916.81;;;15.97;39.09
12626;BME280;6378;42.684;23.372;2023-01-19T05:52:19;93921.47;;;15.93;38.84
12626;BME280;6378;42.684;23.372;2023-01-19T05:54:46;93929.94;;;15.99;38.81
12626;BME280;6378;42.684;23.372;2023-01-19T05:57:12;93928.78;;;16.00;39.22
12626;BME280;6378;42.684;23.372;2023-01-19T05:59:39;93927.66;;;15.97;38.90
12626;BME280;6378;42.684;23.372;2023-01-19T06:02:04;93926.06;;;16.00;38.79
12626;BME280;6378;42.684;23.372;2023-01-19T06:04:30;93937.50;;;16.15;38.79
12626;BME280;6378;42.684;23.372;2023-01-19T06:06:56;93946.34;;;16.22;38.42
12626;BME280;6378;42.684;23.372;2023-01-19T06:09:21;93944.75;;;16.25;38.45
12626;BME280;6378;42.684;23.372;2023-01-19T06:11:47;93937.44;;;16.22;38.32
12626;BME280;6378;42.684;23.372;2023-01-19T06:14:12;93940.59;;;16.17;38.28
12626;BME280;6378;42.684;23.372;2023-01-19T06:16:38;93905.75;;;16.12;38.13
12626;BME280;6378;42.684;23.372;2023-01-19T06:19:04;93914.13;;;16.24;38.12
12626;BME280;6378;42.684;23.372;2023-01-19T06:21:29;93924.72;;;16.42;37.86
12626;BME280;6378;42.684;23.372;2023-01-19T06:23:54;93932.47;;;16.43;38.00
12626;BME280;6378;42.684;23.372;2023-01-19T06:26:20;93947.81;;;16.61;37.41
12626;BME280;6378;42.684;23.372;2023-01-19T06:28:45;93931.75;;;16.70;37.07
12626;BME280;6378;42.684;23.372;2023-01-19T06:31:13;93917.41;;;16.69;37.12
12626;BME280;6378;42.684;23.372;2023-01-19T06:33:38;93907.19;;;16.77;37.04
12626;BME280;6378;42.684;23.372;2023-01-19T06:36:04;93944.09;;;17.01;36.50
12626;BME280;6378;42.684;23.372;2023-01-19T06:38:29;93957.63;;;17.05;35.97
12626;BME280;6378;42.684;23.372;2023-01-19T06:40:56;93948.41;;;17.22;36.22
12626;BME280;6378;42.684;23.372;2023-01-19T06:43:28;93943.97;;;17.31;36.18
12626;BME280;6378;42.684;23.372;2023-01-19T06:45:54;93974.31;;;17.30;36.00
12626;BME280;6378;42.684;23.372;2023-01-19T06:48:20;93972.97;;;17.42;35.18
12626;BME280;6378;42.684;23.372;2023-01-19T06:50:47;93989.28;;;17.42;35.31
12626;BME280;6378;42.684;23.372;2023-01-19T06:53:13;93990.44;;;17.67;35.05
12626;BME280;6378;42.684;23.372;2023-01-19T06:55:43;93958.06;;;17.73;34.31
12626;BME280;6378;42.684;23.372;2023-01-19T06:58:10;93999.25;;;17.95;34.02
12626;BME280;6378;42.684;23.372;2023-01-19T07:00:35;93953.94;;;17.85;33.88
12626;BME280;6378;42.684;23.372;2023-01-19T07:03:01;93982.25;;;18.30;33.99
12626;BME280;6378;42.684;23.372;2023-01-19T07:05:26;93991.41;;;18.40;33.83
12626;BME280;6378;42.684;23.372;2023-01-19T07:07:55;93994.47;;;18.42;33.38
12626;BME280;6378;42.684;23.372;2023-01-19T07:10:22;93982.38;;;18.63;33.06
12626;BME280;6378;42.684;23.372;2023-01-19T07:12:48;93998.44;;;18.57;33.07
12626;BME280;6378;42.684;23.372;2023-01-19T07:15:16;93986.38;;;18.58;33.05
12626;BME280;6378;42.684;23.372;2023-01-19T07:17:42;93984.28;;;18.66;32.73
12626;BME280;6378;42.684;23.372;2023-01-19T07:20:12;93978.06;;;18.45;32.73
12626;BME280;6378;42.684;23.372;2023-01-19T07:22:41;93987.00;;;18.66;32.65
12626;BME280;6378;42.684;23.372;2023-01-19T07:25:11;93977.47;;;18.74;32.01
12626;BME280;6378;42.684;23.372;2023-01-19T07:27:37;93980.19;;;18.74;32.06
12626;BME280;6378;42.684;23.372;2023-01-19T07:30:02;93982.47;;;18.95;31.62
12626;BME280;6378;42.684;23.372;2023-01-19T07:32:29;93994.75;;;19.03;31.71
12626;BME280;6378;42.684;23.372;2023-01-19T07:34:54;93969.16;;;18.97;31.73
12626;BME280;6378;42.684;23.372;2023-01-19T07:37:20;93998.47;;;18.93;31.88
12626;BME280;6378;42.684;23.372;2023-01-19T07:39:46;93980.00;;;19.17;31.31
12626;BME280;6378;42.684;23.372;2023-01-19T07:42:11;93998.50;;;19.41;31.50
12626;BME280;6378;42.684;23.372;2023-01-19T07:44:37;93967.13;;;19.17;30.63
12626;BME280;6378;42.684;23.372;2023-01-19T07:47:03;93951.28;;;18.96;31.28
12626;BME280;6378;42.684;23.372;2023-01-19T07:49:31;93978.91;;;19.14;30.90
12626;BME280;6378;42.684;23.372;2023-01-19T07:51:57;93972.25;;;18.99;31.19
12626;BME280;6378;42.684;23.372;2023-01-19T07:54:22;93975.91;;;19.09;30.77
12626;BME280;6378;42.684;23.372;2023-01-19T07:56:47;93985.03;;;19.18;30.86
12626;BME280;6378;42.684;23.372;2023-01-19T07:59:13;94000.63;;;19.18;30.60
12626;BME280;6378;42.684;23.372;2023-01-19T08:01:38;93983.00;;;19.38;30.46
12626;BME280;6378;42.684;23.372;2023-01-19T08:04:04;93965.97;;;19.51;30.36
12626;BME280;6378;42.684;23.372;2023-01-19T08:06:34;93983.00;;;19.22;30.30
12626;BME280;6378;42.684;23.372;2023-01-19T08:09:00;93961.16;;;19.06;30.77
12626;BME280;6378;42.684;23.372;2023-01-19T08:11:26;93940.19;;;19.03;30.56
12626;BME280;6378;42.684;23.372;2023-01-19T08:13:51;93984.63;;;19.20;30.47
12626;BME280;6378;42.684;23.372;2023-01-19T08:16:17;93986.06;;;19.24;30.78
12626;BME280;6378;42.684;23.372;2023-01-19T08:18:43;94008.44;;;19.52;32.06
12626;BME280;6378;42.684;23.372;2023-01-19T08:21:08;93992.72;;;19.39;30.39
12626;BME280;6378;42.684;23.372;2023-01-19T08:23:34;93992.13;;;19.32;30.42
12626;BME280;6378;42.684;23.372;2023-01-19T08:25:59;93977.56;;;19.38;30.83
12626;BME280;6378;42.684;23.372;2023-01-19T08:28:24;94001.59;;;19.43;30.17
12626;BME280;6378;42.684;23.372;2023-01-19T08:30:50;93998.72;;;19.51;30.22
12626;BME280;6378;42.684;23.372;2023-01-19T08:33:20;93995.16;;;19.54;30.45
12626;BME280;6378;42.684;23.372;2023-01-19T08:35:48;93988.81;;;19.57;29.57
12626;BME280;6378;42.684;23.372;2023-01-19T08:38:14;94008.19;;;19.46;30.17
12626;BME280;6378;42.684;23.372;2023-01-19T08:40:41;93988.63;;;19.31;30.36
12626;BME280;6378;42.684;23.372;2023-01-19T08:43:09;93979.84;;;19.24;30.63
12626;BME280;6378;42.684;23.372;2023-01-19T08:45:40;94017.34;;;19.36;30.77
12626;BME280;6378;42.684;23.372;2023-01-19T08:48:06;94016.06;;;19.40;30.88
12626;BME280;6378;42.684;23.372;2023-01-19T08:50:32;94018.69;;;19.48;31.06
12626;BME280;6378;42.684;23.372;2023-01-19T08:52:59;94021.56;;;19.57;30.75
12626;BME280;6378;42.684;23.372;2023-01-19T08:55:25;94017.50;;;19.49;30.91
12626;BME280;6378;42.684;23.372;2023-01-19T08:57:55;94015.66;;;19.74;31.08
12626;BME280;6378;42.684;23.372;2023-01-19T09:00:24;93988.38;;;19.74;30.48
12626;BME280;6378;42.684;23.372;2023-01-19T09:02:51;93983.47;;;19.53;30.59
12626;BME280;6378;42.684;23.372;2023-01-19T09:05:17;94004.75;;;19.42;30.66
12626;BME280;6378;42.684;23.372;2023-01-19T09:07:43;94019.66;;;19.37;31.06
12626;BME280;6378;42.684;23.372;2023-01-19T09:10:10;94005.38;;;19.50;30.90
12626;BME280;6378;42.684;23.372;2023-01-19T09:12:36;94025.03;;;19.25;30.98
12626;BME280;6378;42.684;23.372;2023-01-19T09:15:01;94034.75;;;19.26;31.18
12626;BME280;6378;42.684;23.372;2023-01-19T09:17:27;93999.53;;;19.31;30.84
12626;BME280;6378;42.684;23.372;2023-01-19T09:19:52;93995.38;;;19.43;31.22
12626;BME280;6378;42.684;23.372;2023-01-19T09:22:18;93981.06;;;19.55;30.81
12626;BME280;6378;42.684;23.372;2023-01-19T09:24:43;93989.44;;;19.64;32.47
12626;BME280;6378;42.684;23.372;2023-01-19T09:27:08;94003.78;;;19.97;30.64
12626;BME280;6378;42.684;23.372;2023-01-19T09:29:34;94015.56;;;19.94;30.63
12626;BME280;6378;42.684;23.372;2023-01-19T09:32:00;93999.94;;;19.95;30.45
12626;BME280;6378;42.684;23.372;2023-01-19T09:34:26;94014.22;;;19.86;30.15
12626;BME280;6378;42.684;23.372;2023-01-19T09:36:52;94012.34;;;19.83;30.55
12626;BME280;6378;42.684;23.372;2023-01-19T09:39:17;93985.72;;;19.71;30.77
12626;BME280;6378;42.684;23.372;2023-01-19T09:41:47;94003.63;;;19.88;30.68
12626;BME280;6378;42.684;23.372;2023-01-19T09:44:27;93981.19;;;19.80;31.17
12626;BME280;6378;42.684;23.372;2023-01-19T09:46:53;93991.13;;;19.58;31.05
12626;BME280;6378;42.684;23.372;2023-01-19T09:49:27;93991.97;;;19.55;31.12
12626;BME280;6378;42.684;23.372;2023-01-19T09:51:55;93958.28;;;19.62;31.05
12626;BME280;6378;42.684;23.372;2023-01-19T09:54:36;93982.59;;;19.56;30.85
12626;BME280;6378;42.684;23.372;2023-01-19T09:57:09;93985.41;;;19.69;30.92
12626;BME280;6378;42.684;23.372;2023-01-19T09:59:36;93980.78;;;19.66;31.19
12626;BME280;6378;42.684;23.372;2023-01-19T10:02:43;93970.28;;;19.80;30.85
12626;BME280;6378;42.684;23.372;2023-01-19T10:05:22;93962.56;;;19.46;30.53
12626;BME280;6378;42.684;23.372;2023-01-19T10:08:11;93964.66;;;19.55;30.73
12626;BME280;6378;42.684;23.372;2023-01-19T10:10:45;93958.63;;;19.48;31.07
12626;BME280;6378;42.684;23.372;2023-01-19T10:13:50;93956.16;;;19.53;31.00
12626;BME280;6378;42.684;23.372;2023-01-19T10:16:24;93966.63;;;19.71;31.12
12626;BME280;6378;42.684;23.372;2023-01-19T10:18:59;93958.28;;;19.62;30.98
12626;BME280;6378;42.684;23.372;2023-01-19T10:21:30;93958.03;;;19.56;31.48
12626;BME280;6378;42.684;23.372;2023-01-19T10:24:10;93961.63;;;19.53;31.86
12626;BME280;6378;42.684;23.372;2023-01-19T10:27:16;93955.28;;;19.56;31.83
12626;BME280;6378;42.684;23.372;2023-01-19T10:29:35;93943.44;;;19.30;31.98
12626;BME280;6378;42.684;23.372;2023-01-19T10:32:14;93947.38;;;19.29;31.79
12626;BME280;6378;42.684;23.372;2023-01-19T10:34:44;93961.19;;;19.38;31.60
12626;BME280;6378;42.684;23.372;2023-01-19T10:39:43;93944.63;;;18.97;31.83
12626;BME280;6378;42.684;23.372;2023-01-19T10:42:12;93962.69;;;19.07;32.05
12626;BME280;6378;42.684;23.372;2023-01-19T10:44:40;93956.75;;;18.96;32.29
12626;BME280;6378;42.684;23.372;2023-01-19T10:47:14;93958.56;;;18.83;32.08
12626;BME280;6378;42.684;23.372;2023-01-19T10:49:42;93945.88;;;18.76;32.42
12626;BME280;6378;42.684;23.372;2023-01-19T10:52:36;93940.31;;;18.64;32.36
12626;BME280;6378;42.684;23.372;2023-01-19T10:55:05;93931.00;;;18.81;32.07
12626;BME280;6378;42.684;23.372;2023-01-19T10:57:34;93932.78;;;19.03;31.88
12626;BME280;6378;42.684;23.372;2023-01-19T11:00:04;93931.78;;;19.30;31.69
12626;BME280;6378;42.684;23.372;2023-01-19T11:02:31;93957.06;;;19.30;31.49
12626;BME280;6378;42.684;23.372;2023-01-19T11:05:24;93947.19;;;19.36;31.75
12626;BME280;6378;42.684;23.372;2023-01-19T11:07:50;93955.03;;;19.34;32.41
12626;BME280;6378;42.684;23.372;2023-01-19T11:12:44;93963.81;;;19.10;32.84
12626;BME280;6378;42.684;23.372;2023-01-19T11:15:40;93953.47;;;19.01;33.32
12626;BME280;6378;42.684;23.372;2023-01-19T11:18:06;93948.97;;;18.94;33.22
12626;BME280;6378;42.684;23.372;2023-01-19T11:23:18;93935.88;;;19.06;32.87
12626;BME280;6378;42.684;23.372;2023-01-19T11:25:48;93942.78;;;19.10;33.18
12626;BME280;6378;42.684;23.372;2023-01-19T11:34:02;93925.78;;;18.70;33.04
12626;BME280;6378;42.684;23.372;2023-01-19T11:36:29;93925.94;;;18.79;33.10
12626;BME280;6378;42.684;23.372;2023-01-19T11:38:58;93902.16;;;18.64;32.25
12626;BME280;6378;42.684;23.372;2023-01-19T11:41:33;93912.72;;;18.62;32.46
12626;BME280;6378;42.684;23.372;2023-01-19T11:44:12;93916.06;;;18.69;32.83
12626;BME280;6378;42.684;23.372;2023-01-19T11:46:43;93919.88;;;18.72;32.60
12626;BME280;6378;42.684;23.372;2023-01-19T11:52:18;93919.38;;;18.60;32.04
12626;BME280;6378;42.684;23.372;2023-01-19T11:54:56;93929.78;;;18.66;32.32
12626;BME280;6378;42.684;23.372;2023-01-19T11:57:24;93908.47;;;18.60;32.46
12626;BME280;6378;42.684;23.372;2023-01-19T11:59:50;93917.41;;;18.61;32.22
12626;BME280;6378;42.684;23.372;2023-01-19T12:02:25;93900.13;;;18.68;32.31
12626;BME280;6378;42.684;23.372;2023-01-19T12:04:55;93885.03;;;18.63;32.15
12626;BME280;6378;42.684;23.372;2023-01-19T12:07:29;93874.84;;;18.47;32.32
12626;BME280;6378;42.684;23.372;2023-01-19T12:12:42;93878.91;;;18.59;32.20
12626;BME280;6378;42.684;23.372;2023-01-19T12:17:56;93902.44;;;18.69;32.09
12626;BME280;6378;42.684;23.372;2023-01-19T12:28:48;93904.97;;;18.40;32.10
12626;BME280;6378;42.684;23.372;2023-01-19T12:31:16;93899.03;;;18.45;32.07
12626;BME280;6378;42.684;23.372;2023-01-19T12:33:42;93872.28;;;18.40;32.06
12626;BME280;6378;42.684;23.372;2023-01-19T12:38:43;93903.25;;;18.30;31.82
12626;BME280;6378;42.684;23.372;2023-01-19T12:51:34;93915.50;;;18.22;32.34
12626;BME280;6378;42.684;23.372;2023-01-19T12:54:00;93908.22;;;18.35;32.19
12626;BME280;6378;42.684;23.372;2023-01-19T12:56:31;93890.00;;;18.32;32.26
12626;BME280;6378;42.684;23.372;2023-01-19T12:58:57;93916.19;;;18.26;32.46
12626;BME280;6378;42.684;23.372;2023-01-19T13:01:23;93905.72;;;18.05;33.95
12626;BME280;6378;42.684;23.372;2023-01-19T13:04:29;93913.75;;;18.12;33.97
12626;BME280;6378;42.684;23.372;2023-01-19T13:09:34;93916.19;;;18.06;32.78
12626;BME280;6378;42.684;23.372;2023-01-19T13:14:39;93928.97;;;18.09;32.47
12626;BME280;6378;42.684;23.372;2023-01-19T13:17:18;93923.81;;;18.15;31.92
12626;BME280;6378;42.684;23.372;2023-01-19T13:19:51;93925.25;;;18.19;31.70
12626;BME280;6378;42.684;23.372;2023-01-19T13:25:26;93950.53;;;18.40;31.71
12626;BME280;6378;42.684;23.372;2023-01-19T13:27:53;93917.44;;;18.41;31.89
12626;BME280;6378;42.684;23.372;2023-01-19T13:30:21;93914.19;;;18.46;31.75
12626;BME280;6378;42.684;23.372;2023-01-19T13:32:48;93922.50;;;18.39;32.03
12626;BME280;6378;42.684;23.372;2023-01-19T13:35:16;93906.97;;;18.20;32.23
12626;BME280;6378;42.684;23.372;2023-01-19T13:37:43;93906.59;;;18.18;32.36
12626;BME280;6378;42.684;23.372;2023-01-19T13:40:36;93904.91;;;18.08;32.47
12626;BME280;6378;42.684;23.372;2023-01-19T13:43:06;93881.34;;;18.17;32.40
12626;BME280;6378;42.684;23.372;2023-01-19T13:45:39;93884.28;;;18.07;32.33
12626;BME280;6378;42.684;23.372;2023-01-19T13:48:07;93888.59;;;18.24;32.44
12626;BME280;6378;42.684;23.372;2023-01-19T13:50:36;93875.66;;;18.28;32.24
12626;BME280;6378;42.684;23.372;2023-01-19T13:53:18;93870.06;;;18.35;32.11
12626;BME280;6378;42.684;23.372;2023-01-19T13:55:44;93868.69;;;18.27;31.88
12626;BME280;6378;42.684;23.372;2023-01-19T13:58:22;93879.84;;;18.33;32.09
12626;BME280;6378;42.684;23.372;2023-01-19T14:00:48;93859.31;;;18.28;32.18
12626;BME280;6378;42.684;23.372;2023-01-19T14:05:41;93877.31;;;18.06;32.71
12626;BME280;6378;42.684;23.372;2023-01-19T14:10:34;93884.50;;;17.96;32.83
12626;BME280;6378;42.684;23.372;2023-01-19T14:13:05;93860.38;;;17.79;32.96
12626;BME280;6378;42.684;23.372;2023-01-19T14:15:36;93881.88;;;17.93;33.05
12626;BME280;6378;42.684;23.372;2023-01-19T14:21:09;93877.81;;;17.81;33.50
12626;BME280;6378;42.684;23.372;2023-01-19T14:26:48;93894.81;;;17.65;34.00
12626;BME280;6378;42.684;23.372;2023-01-19T14:36:54;93909.03;;;17.53;34.39
12626;BME280;6378;42.684;23.372;2023-01-19T14:39:22;93910.75;;;17.44;34.62
12626;BME280;6378;42.684;23.372;2023-01-19T14:41:50;93901.13;;;17.39;34.76
12626;BME280;6378;42.684;23.372;2023-01-19T14:44:36;93903.00;;;17.42;34.80
12626;BME280;6378;42.684;23.372;2023-01-19T14:47:03;93922.41;;;17.44;34.95